Data for 04/04/2017

Time Sea-Level Adjusted Pressure Absolute Pressure Temperature Relative Humidity Dew Point   
(mb) (inHg) (mb) (inHg) (C) (F) (%) (C) (F)
00:05 1019 30.09 848 25.04 -1.6 29.2 72 -5.9 21.4
00:10 1019 30.09 848 25.04 -1.6 29.1 73 -5.9 21.4
00:15 1019 30.09 848 25.04 -1.6 29.1 73 -5.8 21.5
00:20 1019 30.09 848 25.04 -1.7 29 73 -5.8 21.5
00:25 1019 30.09 848 25.04 -1.7 29 74 -5.7 21.7
00:30 1019 30.09 848 25.04 -1.7 28.9 74 -5.7 21.7
00:35 1019 30.09 848 25.04 -1.8 28.7 75 -5.6 21.9
00:40 1019 30.09 848 25.04 -1.9 28.6 75 -5.7 21.8
00:45 1019 30.09 848 25.04 -1.9 28.6 74 -6 21.3
00:50 1019 30.09 848 25.04 -1.9 28.6 75 -5.8 21.6
00:55 1019 30.09 848 25.04 -1.9 28.7 75 -5.8 21.6
01:00 1019 30.09 848 25.04 -1.9 28.5 74 -5.9 21.4
01:05 1019 30.09 848 25.04 -2 28.5 73 -6.2 20.9
01:10 1019 30.09 848 25.04 -2 28.4 73 -6.2 20.8
01:15 1019 30.09 848 25.04 -2 28.5 73 -6.2 20.8
01:20 1019 30.09 848 25.04 -1.9 28.5 72 -6.3 20.7
01:25 1019 30.09 848 25.04 -1.9 28.6 71 -6.5 20.4
01:30 1019 30.09 848 25.04 -1.9 28.5 72 -6.3 20.6
01:35 1019 30.09 848 25.04 -1.9 28.6 73 -6 21.1
01:40 1019 30.09 848 25.04 -2 28.4 74 -6 21.2
01:45 1019 30.09 848 25.04 -2.1 28.2 76 -5.7 21.7
01:50 1019 30.09 848 25.04 -2.3 27.8 80 -5.4 22.3
01:55 1019 30.09 848 25.04 -2.4 27.6 80 -5.4 22.2
02:00 1019 30.09 849 25.07 -2.5 27.6 81 -5.3 22.4
02:05 1019 30.09 849 25.07 -2.6 27.4 82 -5.2 22.7
02:10 1019 30.09 849 25.07 -2.6 27.2 84 -5.1 22.9
02:15 1019 30.09 849 25.07 -2.7 27.1 84 -5 23
02:20 1019 30.09 849 25.07 -2.8 26.9 86 -4.8 23.3
02:25 1020 30.12 849 25.07 -2.8 26.9 87 -4.8 23.4
02:30 1020 30.12 849 25.07 -2.9 26.7 87 -4.8 23.3
02:35 1020 30.12 849 25.07 -3 26.6 87 -4.9 23.2
02:40 1020 30.12 849 25.07 -3 26.5 87 -4.9 23.3
02:45 1020 30.12 849 25.07 -3 26.5 88 -4.8 23.4
02:50 1020 30.12 849 25.07 -3 26.6 88 -4.8 23.4
02:55 1020 30.12 849 25.07 -3.1 26.5 88 -4.8 23.3
03:00 1020 30.12 849 25.07 -3.1 26.4 88 -4.9 23.2
03:05 1020 30.12 849 25.07 -3.2 26.2 88 -5 23.1
03:10 1020 30.12 849 25.07 -3.2 26.2 88 -4.9 23.1
03:15 1020 30.12 849 25.07 -3.3 26.1 87 -5.1 22.8
03:20 1020 30.12 849 25.07 -3.3 26 88 -5 22.9
03:25 1020 30.12 849 25.07 -3.3 26 88 -5 23
03:30 1020 30.12 849 25.07 -3.4 26 88 -5.1 22.9
03:35 1020 30.12 849 25.07 -3.4 25.8 88 -5.1 22.8
03:40 1020 30.12 849 25.07 -3.4 25.8 88 -5.1 22.8
03:45 1020 30.12 849 25.07 -3.5 25.7 88 -5.1 22.8
03:50 1020 30.12 849 25.07 -3.5 25.7 89 -5.1 22.9
03:55 1020 30.12 849 25.07 -3.5 25.7 89 -5 22.9
04:00 1020 30.12 849 25.07 -3.4 25.9 89 -5 23.1
04:05 1020 30.12 849 25.07 -3.4 25.9 89 -5 23
04:10 1020 30.12 849 25.07 -3.6 25.6 89 -5 22.9
04:15 1020 30.12 849 25.07 -3.6 25.6 90 -5 23
04:20 1020 30.12 849 25.07 -3.5 25.7 89 -5 23.1
04:25 1020 30.12 849 25.07 -3.5 25.8 89 -5 23
04:30 1020 30.12 849 25.07 -3.5 25.7 90 -5 23.1
04:35 1020 30.12 849 25.07 -3.6 25.6 90 -5 23
04:40 1020 30.12 849 25.07 -3.6 25.6 90 -4.9 23.1
04:45 1020 30.12 849 25.07 -3.5 25.7 91 -4.8 23.4
04:50 1020 30.12 849 25.07 -3.4 25.9 90 -4.8 23.3
04:55 1020 30.12 849 25.07 -3.5 25.7 90 -4.9 23.1
05:00 1020 30.12 849 25.07 -3.6 25.6 90 -4.9 23.2
05:05 1020 30.12 849 25.07 -3.5 25.6 90 -4.9 23.1
05:10 1020 30.12 849 25.07 -3.6 25.5 90 -5 22.9
05:15 1020 30.12 849 25.07 -3.6 25.5 90 -5 23
05:20 1020 30.12 849 25.07 -3.6 25.6 90 -5 23
05:25 1020 30.12 849 25.07 -3.5 25.7 90 -4.9 23.1
05:30 1020 30.12 850 25.1 -3.4 25.8 90 -4.9 23.2
05:35 1020 30.12 850 25.1 -3.4 25.8 89 -5 23.1
05:40 1020 30.12 850 25.1 -3.4 25.9 89 -5 23.1
05:45 1020 30.12 850 25.1 -3.4 25.9 89 -5 23.1
05:50 1021 30.15 850 25.1 -3.4 25.8 89 -5 23
05:55 1021 30.15 850 25.1 -3.4 25.8 89 -5 23.1
06:00 1021 30.15 850 25.1 -3.3 26.1 89 -4.8 23.3
06:05 1021 30.15 850 25.1 -3.2 26.3 88 -5 23.1
06:10 1021 30.15 850 25.1 -3.3 26.1 87 -5.1 22.8
06:15 1021 30.15 850 25.1 -3.3 26 87 -5.2 22.7
06:20 1021 30.15 850 25.1 -3.3 26 87 -5.3 22.5
06:25 1021 30.15 850 25.1 -3.4 25.9 87 -5.3 22.4
06:30 1021 30.15 850 25.1 -3.4 25.8 87 -5.3 22.4
06:35 1021 30.15 850 25.1 -3.4 25.9 87 -5.3 22.4
06:40 1021 30.15 850 25.1 -3.4 25.9 87 -5.3 22.5
06:45 1021 30.15 850 25.1 -3.4 25.9 86 -5.4 22.2
06:50 1021 30.15 850 25.1 -3.4 25.9 86 -5.4 22.2
06:55 1021 30.15 850 25.1 -3.4 25.8 86 -5.4 22.2
07:00 1021 30.15 850 25.1 -3.4 25.9 85 -5.5 22.1
07:05 1021 30.15 851 25.13 -3.3 26 85 -5.5 22.1
07:10 1021 30.15 850 25.1 -3.3 26.1 85 -5.4 22.3
07:15 1021 30.15 850 25.1 -3.2 26.3 85 -5.3 22.5
07:20 1021 30.15 850 25.1 -3.2 26.3 85 -5.4 22.3
07:25 1021 30.15 851 25.13 -3 26.5 83 -5.5 22
07:30 1021 30.15 851 25.13 -3 26.6 83 -5.4 22.2
07:35 1022 30.18 851 25.13 -2.8 27 81 -5.6 21.9
07:40 1022 30.18 851 25.13 -2.6 27.3 80 -5.7 21.8
07:45 1022 30.18 851 25.13 -2.7 27.1 80 -5.6 21.9
07:50 1022 30.18 851 25.13 -2.7 27.1 78 -6 21.2
07:55 1022 30.18 851 25.13 -2.4 27.6 77 -5.9 21.4
08:00 1022 30.18 851 25.13 -2.2 28 75 -6 21.2
08:05 1022 30.18 851 25.13 -2.1 28.3 74 -6.1 21
08:10 1022 30.18 851 25.13 -1.9 28.6 74 -6 21.2
08:15 1022 30.18 851 25.13 -1.8 28.8 72 -6.2 20.9
08:20 1022 30.18 851 25.13 -1.5 29.2 70 -6.4 20.5
08:25 1022 30.18 851 25.13 -1.2 29.8 67 -6.6 20.1
08:30 1022 30.18 851 25.13 -1.3 29.7 67 -6.7 20
08:35 1022 30.18 851 25.13 -1.1 30 66 -6.6 20
08:40 1022 30.18 851 25.13 -0.8 30.6 64 -6.8 19.8
08:45 1022 30.18 851 25.13 -0.6 31 60 -7.3 18.8
08:50 1022 30.18 851 25.13 0 32.1 57 -7.6 18.4
08:55 1022 30.18 851 25.13 0.1 32.3 58 -7.2 19.1
09:00 1022 30.18 851 25.13 0.7 33.3 56 -7 19.5
09:05 1022 30.18 851 25.13 1.1 34 53 -7.5 18.6
09:10 1022 30.18 851 25.13 1.2 34.2 54 -7.1 19.3
09:15 1022 30.18 851 25.13 1.8 35.3 54 -6.4 20.5
09:20 1022 30.18 851 25.13 1.4 34.4 54 -6.9 19.6
09:25 1022 30.18 851 25.13 1.2 34.1 54 -7.1 19.2
09:30 1022 30.18 851 25.13 0.9 33.5 55 -7.2 19
09:35 1022 30.18 851 25.13 1.8 35.2 51 -7.3 18.9
09:40 1022 30.18 851 25.13 2.4 36.2 51 -6.8 19.7
09:45 1022 30.18 851 25.13 2.7 36.8 47 -7.5 18.4
09:50 1022 30.18 851 25.13 2.5 36.4 49 -7.2 19.1
09:55 1022 30.18 851 25.13 2.3 36.1 46 -8.2 17.3
10:00 1022 30.18 851 25.13 2.2 36 49 -7.5 18.6
10:05 1022 30.18 851 25.13 2.2 36 49 -7.3 18.8
10:10 1022 30.18 851 25.13 2.7 36.8 49 -6.9 19.5
10:15 1022 30.18 851 25.13 2.5 36.5 52 -6.4 20.5
10:20 1022 30.18 851 25.13 2.7 36.9 47 -7.5 18.5
10:25 1022 30.18 851 25.13 2.5 36.6 48 -7.5 18.5
10:30 1022 30.18 851 25.13 3.3 38 45 -7.4 18.7
10:35 1022 30.18 851 25.13 3.5 38.4 49 -6.1 21.1
10:40 1022 30.18 851 25.13 3.5 38.2 46 -7.1 19.3
10:45 1022 30.18 851 25.13 2.8 37 54 -5.7 21.7
10:50 1022 30.18 851 25.13 2.5 36.5 48 -7.5 18.5
10:55 1022 30.18 851 25.13 3.1 37.6 53 -5.6 21.9
11:00 1022 30.18 851 25.13 3.1 37.6 49 -6.6 20.1
11:05 1022 30.18 851 25.13 3.6 38.4 49 -6.1 21.1
11:10 1022 30.18 851 25.13 3.8 38.9 48 -6.1 21.1
11:15 1022 30.18 851 25.13 3.8 38.8 53 -4.8 23.3
11:20 1022 30.18 851 25.13 3.7 38.6 52 -5.4 22.3
11:25 1022 30.18 851 25.13 3.3 37.9 51 -6 21.3
11:30 1022 30.18 851 25.13 3.7 38.6 50 -5.8 21.5
11:35 1022 30.18 851 25.13 3.2 37.8 49 -6.5 20.3
11:40 1022 30.18 851 25.13 2.7 36.9 51 -6.3 20.6
11:45 1022 30.18 851 25.13 3.2 37.7 45 -7.6 18.3
11:50 1022 30.18 851 25.13 3.5 38.3 43 -8 17.6
11:55 1022 30.18 851 25.13 3.7 38.6 40 -8.7 16.3
12:00 1022 30.18 851 25.13 3.7 38.6 44 -7.5 18.5
12:05 1022 30.18 851 25.13 4.2 39.6 42 -7.5 18.5
12:10 1022 30.18 851 25.13 4.4 40 41 -7.8 17.9
12:15 1021 30.15 851 25.13 4.4 40 40 -7.9 17.8
12:20 1021 30.15 851 25.13 5.1 41.3 44 -6.3 20.7
12:25 1021 30.15 851 25.13 4.8 40.7 45 -6.2 20.9
12:30 1021 30.15 851 25.13 4.7 40.5 42 -7.2 19.1
12:35 1021 30.15 851 25.13 5.7 42.3 40 -7 19.4
12:40 1021 30.15 851 25.13 5.1 41.2 42 -6.7 19.9
12:45 1021 30.15 851 25.13 5.6 42 41 -6.7 20
12:50 1021 30.15 851 25.13 5.7 42.3 39 -7.1 19.2
12:55 1021 30.15 851 25.13 4.6 40.3 44 -6.6 20.1
13:00 1021 30.15 851 25.13 4.2 39.6 44 -6.9 19.6
13:05 1021 30.15 851 25.13 4.3 39.7 45 -6.8 19.8
13:10 1021 30.15 850 25.1 3.9 39.1 44 -7.3 18.8
13:15 1021 30.15 850 25.1 4.2 39.6 41 -7.8 17.9
13:20 1021 30.15 850 25.1 4.6 40.2 41 -7.6 18.2
13:25 1021 30.15 850 25.1 4.8 40.7 40 -7.7 18.1
13:30 1021 30.15 850 25.1 6.1 43 38 -7.1 19.2
13:35 1021 30.15 850 25.1 5.7 42.3 40 -6.9 19.6
13:40 1021 30.15 850 25.1 7 44.7 35 -7.5 18.5
13:45 1021 30.15 850 25.1 6.8 44.3 36 -7.3 18.8
13:50 1021 30.15 850 25.1 6.5 43.8 35 -7.8 18
13:55 1021 30.15 850 25.1 6.2 43.2 36 -7.9 17.7
14:00 1021 30.15 850 25.1 6.4 43.5 35 -8.1 17.4
14:05 1021 30.15 850 25.1 6.5 43.7 36 -7.5 18.5
14:10 1021 30.15 850 25.1 6.4 43.6 35 -7.9 17.8
14:15 1021 30.15 850 25.1 7.1 44.8 33 -8 17.6
14:20 1021 30.15 850 25.1 7.5 45.6 33 -7.8 17.9
14:25 1021 30.15 850 25.1 7.8 46.1 32 -7.8 17.9
14:30 1021 30.15 850 25.1 6.4 43.5 36 -7.4 18.6
14:35 1021 30.15 850 25.1 6.2 43.2 35 -8 17.6
14:40 1021 30.15 850 25.1 6.9 44.5 33 -8.3 17.1
14:45 1021 30.15 850 25.1 5.9 42.6 36 -8.1 17.5
14:50 1021 30.15 850 25.1 6.1 43 36 -7.9 17.8
14:55 1021 30.15 850 25.1 6.9 44.5 33 -8.1 17.4
15:00 1021 30.15 850 25.1 7.5 45.5 32 -8 17.6
15:05 1021 30.15 850 25.1 7.8 46 31 -8.1 17.4
15:10 1021 30.15 850 25.1 8.3 46.9 31 -7.9 17.7
15:15 1020 30.12 850 25.1 8.5 47.2 30 -8.1 17.5
15:20 1020 30.12 850 25.1 7.9 46.3 31 -8 17.6
15:25 1020 30.12 850 25.1 7.2 45 32 -8.4 16.9
15:30 1020 30.12 850 25.1 7.3 45.1 31 -8.9 16
15:35 1020 30.12 850 25.1 7.6 45.6 31 -8.6 16.5
15:40 1020 30.12 850 25.1 7.8 46 30 -8.6 16.5
15:45 1020 30.12 849 25.07 7.4 45.2 31 -8.5 16.7
15:50 1020 30.12 849 25.07 7.3 45.2 32 -8.5 16.8
15:55 1020 30.12 849 25.07 7.3 45.2 31 -8.6 16.6
16:00 1020 30.12 849 25.07 7.4 45.3 31 -8.6 16.5
16:05 1020 30.12 849 25.07 7.8 46 30 -8.6 16.5
16:10 1020 30.12 849 25.07 8.3 46.9 30 -8.5 16.8
16:15 1020 30.12 849 25.07 8.2 46.7 31 -8 17.6
16:20 1020 30.12 849 25.07 8 46.4 29 -9 15.9
16:25 1020 30.12 849 25.07 8.7 47.6 29 -8.4 16.9
16:30 1020 30.12 849 25.07 8.6 47.5 29 -8.3 17.1
16:35 1020 30.12 849 25.07 8.5 47.3 29 -8.5 16.7
16:40 1020 30.12 849 25.07 7.8 46 30 -8.6 16.5
16:45 1020 30.12 849 25.07 8 46.3 29 -9.2 15.4
16:50 1020 30.12 849 25.07 7.5 45.4 30 -9.2 15.5
16:55 1020 30.12 849 25.07 8.1 46.5 28 -9.2 15.4
17:00 1020 30.12 849 25.07 8.3 46.9 28 -9.3 15.3
17:05 1020 30.12 849 25.07 8.2 46.8 28 -9.1 15.6
17:10 1020 30.12 849 25.07 7.7 45.8 28 -9.6 14.6
17:15 1020 30.12 849 25.07 8.2 46.7 28 -9.4 15
17:20 1020 30.12 849 25.07 8.1 46.7 28 -9.3 15.2
17:25 1020 30.12 849 25.07 7.8 46.1 28 -9.7 14.6
17:30 1020 30.12 849 25.07 7.7 45.8 28 -9.6 14.7
17:35 1020 30.12 849 25.07 7.5 45.4 28 -9.8 14.4
17:40 1020 30.12 849 25.07 7.3 45.2 28 -9.8 14.4
17:45 1020 30.12 849 25.07 7.4 45.3 29 -9.5 14.9
17:50 1020 30.12 849 25.07 7.4 45.2 29 -9.7 14.5
17:55 1020 30.12 849 25.07 7.1 44.9 29 -9.9 14.3
18:00 1020 30.12 849 25.07 7.1 44.8 28 -10.1 13.8
18:05 1020 30.12 849 25.07 7 44.6 29 -9.8 14.4
18:10 1020 30.12 849 25.07 6.6 43.9 31 -9.3 15.2
18:15 1020 30.12 849 25.07 6.3 43.3 32 -9.2 15.5
18:20 1020 30.12 849 25.07 5.9 42.6 33 -9.3 15.3
18:25 1020 30.12 849 25.07 5.7 42.3 33 -9.5 14.9
18:30 1020 30.12 849 25.07 5.7 42.2 33 -9.3 15.3
18:35 1020 30.12 849 25.07 5.7 42.2 34 -9.1 15.7
18:40 1019 30.09 849 25.07 5.5 42 34 -9.3 15.3
18:45 1019 30.09 849 25.07 5.5 41.8 34 -9.3 15.3
18:50 1019 30.09 849 25.07 5.3 41.6 34 -9.2 15.4
18:55 1019 30.09 849 25.07 5.2 41.3 35 -8.9 16
19:00 1019 30.09 849 25.07 5.3 41.5 35 -9 15.9
19:05 1019 30.09 849 25.07 5.2 41.4 37 -8.3 17.1
19:10 1019 30.09 849 25.07 5 40.9 37 -8.4 16.9
19:15 1019 30.09 849 25.07 4.7 40.5 40 -7.9 17.8
19:20 1019 30.09 849 25.07 4.5 40.1 39 -8.3 17.1
19:25 1019 30.09 849 25.07 4.4 39.9 40 -8.1 17.4
19:30 1019 30.09 849 25.07 4.2 39.6 42 -7.7 18.2
19:35 1019 30.09 849 25.07 3.9 39.1 43 -7.7 18.2
19:40 1019 30.09 849 25.07 3.9 39.1 43 -7.6 18.3
19:45 1020 30.12 849 25.07 4.1 39.3 44 -7.1 19.2
19:50 1020 30.12 849 25.07 3.7 38.7 45 -7.3 18.9
19:55 1020 30.12 849 25.07 3.4 38.1 47 -6.8 19.7
20:00 1020 30.12 849 25.07 2.9 37.2 50 -6.7 20
20:05 1020 30.12 849 25.07 2.5 36.5 49 -7.1 19.2
20:10 1020 30.12 849 25.07 2.4 36.3 48 -7.6 18.3
20:15 1020 30.12 849 25.07 2.3 36.1 50 -7 19.4
20:20 1020 30.12 849 25.07 2.1 35.7 51 -7.1 19.3
20:25 1020 30.12 849 25.07 1.9 35.5 48 -7.9 17.8
20:30 1020 30.12 849 25.07 2.1 35.8 49 -7.6 18.2
20:35 1020 30.12 849 25.07 1.9 35.4 48 -7.9 17.9
20:40 1020 30.12 849 25.07 1.8 35.2 49 -7.8 18
20:45 1020 30.12 849 25.07 1.7 35.1 47 -8.5 16.8
20:50 1020 30.12 849 25.07 1.7 35 50 -7.7 18.1
20:55 1020 30.12 849 25.07 1.8 35.3 47 -8.4 16.9
21:00 1020 30.12 849 25.07 1.9 35.4 47 -8.4 16.9
21:05 1020 30.12 849 25.07 1.8 35.2 46 -8.7 16.3
21:10 1020 30.12 849 25.07 1.7 35.1 47 -8.4 16.9
21:15 1020 30.12 849 25.07 1.6 34.8 49 -8 17.5
21:20 1020 30.12 849 25.07 1.4 34.5 48 -8.5 16.6
21:25 1020 30.12 849 25.07 1.6 34.9 47 -8.6 16.6
21:30 1020 30.12 849 25.07 1.6 35 47 -8.6 16.6
21:35 1020 30.12 849 25.07 1.7 35 47 -8.5 16.7
21:40 1020 30.12 849 25.07 1.9 35.5 45 -8.7 16.3
21:45 1020 30.12 849 25.07 1.7 35.1 46 -8.7 16.4
21:50 1020 30.12 849 25.07 1.5 34.7 47 -8.5 16.6
21:55 1020 30.12 849 25.07 1.3 34.4 48 -8.5 16.7
22:00 1020 30.12 849 25.07 1.3 34.3 48 -8.6 16.5
22:05 1020 30.12 849 25.07 1.3 34.3 47 -9 15.9
22:10 1020 30.12 849 25.07 1.5 34.7 46 -8.8 16.2
22:15 1020 30.12 849 25.07 1.7 35.1 45 -9 15.8
22:20 1020 30.12 849 25.07 1.6 35 45 -8.9 15.9
22:25 1020 30.12 849 25.07 1.6 34.9 45 -9 15.8
22:30 1020 30.12 849 25.07 1.7 35 45 -8.9 16
22:35 1020 30.12 849 25.07 1.7 35 46 -8.8 16.2
22:40 1020 30.12 849 25.07 1.7 35 45 -8.9 15.9
22:45 1020 30.12 849 25.07 1.9 35.4 44 -9.1 15.6
22:50 1020 30.12 849 25.07 2 35.6 43 -9.3 15.2
22:55 1020 30.12 849 25.07 1.8 35.3 44 -9.1 15.5
23:00 1020 30.12 849 25.07 1.5 34.7 44 -9.5 14.9
23:05 1020 30.12 849 25.07 1.3 34.4 45 -9.4 15
23:10 1020 30.12 849 25.07 1.2 34.1 44 -9.8 14.3
23:15 1020 30.12 849 25.07 1.3 34.3 42 -10.3 13.5
23:20 1020 30.12 849 25.07 1.6 35 40 -10.7 12.7
23:25 1020 30.12 849 25.07 1.8 35.2 40 -10.5 13.1
23:30 1020 30.12 849 25.07 1.8 35.2 38 -11.1 12
23:35 1020 30.12 849 25.07 1.9 35.5 39 -10.6 13
23:40 1020 30.12 849 25.07 1.6 34.9 46 -8.7 16.3
23:45 1020 30.12 849 25.07 0.5 32.9 48 -9.4 15.1
23:50 1020 30.12 849 25.07 0.4 32.7 47 -9.7 14.5
23:55 1020 30.12 849 25.07 0.5 32.9 46 -9.8 14.3
24:00 1020 30.12 849 25.07 0.6 33 44 -10.4 13.3